Time;durP1;ratioP1;P1;durP2;ratioP2;P2;SDS_P1;SDS_P2;PMS_P1;PMS_P2;Temp;Humidity;BMP_temperature;BMP_pressure;BME280_temperature;BME280_humidity;BME280_pressure;Samples;Min_cycle;Max_cycle;Signal;HPM_P1;HPM_P2
2021/05/11 00:00:42;;;;;;;11.63;7.20;;;14.30;85.90;;;;;;5057719;28;20040;-53
2021/05/11 00:03:07;;;;;;;12.05;6.97;;;14.30;85.80;;;;;;5043801;28;20041;-51
2021/05/11 00:05:36;;;;;;;12.77;7.18;;;14.30;85.70;;;;;;5075018;28;20083;-56
2021/05/11 00:08:02;;;;;;;12.27;7.63;;;14.30;85.70;;;;;;5073910;28;20087;-54
2021/05/11 00:10:28;;;;;;;12.63;7.40;;;14.30;85.70;;;;;;5074615;28;20044;-54
2021/05/11 00:12:55;;;;;;;12.63;7.47;;;14.30;85.80;;;;;;5074772;28;20416;-53
2021/05/11 00:15:22;;;;;;;12.68;7.07;;;14.30;85.50;;;;;;5054103;28;20435;-53
2021/05/11 00:17:48;;;;;;;11.63;7.40;;;14.30;85.60;;;;;;5056811;28;20056;-54
2021/05/11 00:20:17;;;;;;;12.68;7.13;;;14.40;85.30;;;;;;5074228;28;20040;-56
2021/05/11 00:22:44;;;;;;;11.88;7.50;;;14.30;85.60;;;;;;5074502;28;20033;-57
2021/05/11 00:25:10;;;;;;;14.07;7.13;;;14.30;85.70;;;;;;5074453;28;20044;-56
2021/05/11 00:27:36;;;;;;;12.65;7.25;;;14.30;85.50;;;;;;5073291;28;20238;-54
2021/05/11 00:30:03;;;;;;;12.23;7.57;;;14.20;85.70;;;;;;5073835;28;20164;-54
2021/05/11 00:32:29;;;;;;;13.25;7.75;;;14.20;85.80;;;;;;5074234;28;20504;-55
2021/05/11 00:34:55;;;;;;;11.52;7.13;;;14.20;86.00;;;;;;5073584;28;20060;-55
2021/05/11 00:37:21;;;;;;;12.82;7.93;;;14.30;85.80;;;;;;5066939;28;20040;-55
2021/05/11 00:39:47;;;;;;;12.85;8.43;;;14.20;86.00;;;;;;5068851;28;20091;-56
2021/05/11 00:42:13;;;;;;;13.20;7.78;;;14.20;86.20;;;;;;5068539;28;20107;-55
2021/05/11 00:44:38;;;;;;;14.25;8.68;;;14.20;86.30;;;;;;5074381;28;20074;-54
2021/05/11 00:47:04;;;;;;;13.90;8.05;;;14.20;86.60;;;;;;5074959;28;20472;-54
2021/05/11 00:49:33;;;;;;;12.00;8.50;;;14.20;86.50;;;;;;5055705;28;20074;-56
2021/05/11 00:52:00;;;;;;;11.43;7.95;;;14.20;86.70;;;;;;5074344;28;20048;-54
2021/05/11 00:54:26;;;;;;;17.08;8.45;;;14.10;87.20;;;;;;5072281;28;20049;-56
2021/05/11 00:56:53;;;;;;;15.50;8.25;;;14.20;87.10;;;;;;5073722;28;20044;-54
2021/05/11 00:59:26;;;;;;;16.65;8.88;;;14.10;86.90;;;;;;5073677;28;20051;-56
2021/05/11 01:01:53;;;;;;;15.77;8.50;;;14.20;87.20;;;;;;5057174;28;20045;-56
2021/05/11 01:04:19;;;;;;;15.75;8.75;;;14.10;87.20;;;;;;5070636;28;20127;-55
2021/05/11 01:06:45;;;;;;;12.18;8.23;;;14.10;87.90;;;;;;5075215;28;20542;-55
2021/05/11 01:09:11;;;;;;;12.20;7.78;;;14.10;87.90;;;;;;5074157;28;20048;-55
2021/05/11 01:11:38;;;;;;;17.90;8.18;;;14.00;88.20;;;;;;5071783;28;20059;-56
2021/05/11 01:14:05;;;;;;;15.30;8.68;;;14.00;88.40;;;;;;5063612;28;20539;-55
2021/05/11 01:16:32;;;;;;;14.07;8.23;;;13.90;88.50;;;;;;5073073;28;20434;-55
2021/05/11 01:19:15;;;;;;;13.32;8.57;;;13.90;88.50;;;;;;5056090;28;20562;-56
2021/05/11 01:24:37;;;;;;;14.98;9.30;;;13.90;88.90;;;;;;5049104;28;20499;-56
2021/05/11 01:48:28;;;;;;;16.35;10.52;;;13.70;91.10;;;;;;5067836;28;20045;-55
2021/05/11 01:53:49;;;;;;;17.20;10.63;;;13.70;91.40;;;;;;5072593;28;20032;-55
2021/05/11 02:23:13;;;;;;;14.85;10.07;;;13.50;92.20;;;;;;5052796;28;20041;-55
2021/05/11 02:25:39;;;;;;;15.70;10.55;;;13.60;92.30;;;;;;5056559;28;20033;-55
2021/05/11 02:28:05;;;;;;;19.05;11.05;;;13.50;92.00;;;;;;5071460;28;20064;-55
2021/05/11 02:30:31;;;;;;;19.65;10.50;;;13.40;92.30;;;;;;5060373;28;20045;-56
2021/05/11 02:32:57;;;;;;;17.00;10.55;;;13.50;92.60;;;;;;5067505;28;20150;-56
2021/05/11 02:35:23;;;;;;;12.00;8.77;;;13.50;92.60;;;;;;5052678;28;20075;-55
2021/05/11 02:37:49;;;;;;;11.02;8.38;;;13.60;92.40;;;;;;5070027;28;20064;-55
2021/05/11 02:40:20;;;;;;;10.15;7.95;;;13.50;92.40;;;;;;5071273;28;20048;-55
2021/05/11 02:42:47;;;;;;;12.57;7.00;;;13.40;92.30;;;;;;5071222;28;20039;-55
2021/05/11 02:45:14;;;;;;;9.13;4.93;;;13.50;92.70;;;;;;5071307;28;20075;-55
2021/05/11 02:47:50;;;;;;;8.38;4.82;;;13.50;92.10;;;;;;5070475;28;20052;-55
2021/05/11 02:50:26;;;;;;;11.32;5.43;;;13.50;91.60;;;;;;5063139;28;20140;-55
2021/05/11 02:52:53;;;;;;;6.82;4.65;;;13.50;91.30;;;;;;5067165;28;20033;-55
2021/05/11 02:55:19;;;;;;;8.15;3.35;;;13.50;91.50;;;;;;5053007;28;20119;-56
2021/05/11 02:57:47;;;;;;;5.40;3.50;;;13.60;90.60;;;;;;5051290;28;20040;-55
2021/05/11 03:00:16;;;;;;;5.65;4.03;;;13.60;90.70;;;;;;5070292;28;20450;-56
2021/05/11 03:02:41;;;;;;;7.07;4.50;;;13.50;90.70;;;;;;5068468;28;20115;-54
2021/05/11 03:05:07;;;;;;;6.32;3.10;;;13.40;90.90;;;;;;5067358;28;20131;-55
2021/05/11 03:07:34;;;;;;;4.35;2.92;;;13.30;91.10;;;;;;5055752;28;20032;-56
2021/05/11 03:10:01;;;;;;;5.70;2.80;;;13.30;91.00;;;;;;5053061;28;20047;-55
2021/05/11 03:12:30;;;;;;;4.03;2.20;;;13.30;91.00;;;;;;5070663;28;20048;-55
2021/05/11 03:14:56;;;;;;;5.38;3.30;;;13.30;91.00;;;;;;5070642;28;20047;-55
2021/05/11 03:17:21;;;;;;;7.88;2.97;;;13.30;91.00;;;;;;5070028;28;20092;-55
2021/05/11 03:19:47;;;;;;;4.68;1.77;;;13.30;91.30;;;;;;5069848;28;20032;-55
2021/05/11 03:22:13;;;;;;;3.40;2.05;;;13.30;91.00;;;;;;5067736;28;20128;-55
2021/05/11 03:24:44;;;;;;;3.33;2.17;;;13.40;90.50;;;;;;5070857;28;20123;-55
2021/05/11 03:27:11;;;;;;;7.55;3.80;;;13.30;90.40;;;;;;5068797;28;20059;-55
2021/05/11 03:29:37;;;;;;;7.53;3.88;;;13.40;90.80;;;;;;5033021;28;20045;-55
2021/05/11 03:32:04;;;;;;;7.45;4.10;;;13.30;90.80;;;;;;5032180;28;20389;-55
2021/05/11 03:34:30;;;;;;;6.03;4.10;;;13.20;91.00;;;;;;5070363;28;20040;-54
2021/05/11 03:36:57;;;;;;;7.35;4.30;;;13.20;91.40;;;;;;5033491;28;20055;-56
2021/05/11 03:39:24;;;;;;;7.90;4.85;;;13.20;91.30;;;;;;5070699;28;20326;-55
2021/05/11 03:41:54;;;;;;;6.75;4.82;;;13.10;91.50;;;;;;5036158;28;20043;-55
2021/05/11 03:44:24;;;;;;;7.40;5.32;;;13.10;91.70;;;;;;5066224;28;20072;-55
2021/05/11 03:46:50;;;;;;;8.55;5.15;;;13.10;91.80;;;;;;5052251;28;20045;-55
2021/05/11 03:49:16;;;;;;;7.78;5.00;;;13.10;92.00;;;;;;5052833;28;20409;-56
2021/05/11 03:51:42;;;;;;;9.68;5.18;;;13.20;92.20;;;;;;5068094;28;20044;-55
2021/05/11 03:54:09;;;;;;;9.07;5.47;;;13.10;92.30;;;;;;5066679;28;20063;-55
2021/05/11 03:56:36;;;;;;;10.50;5.60;;;13.10;92.20;;;;;;5046046;28;20048;-56
2021/05/11 03:59:02;;;;;;;8.48;5.47;;;13.10;92.40;;;;;;5060146;28;20052;-56
2021/05/11 04:01:28;;;;;;;9.60;6.07;;;13.00;92.60;;;;;;5069897;28;20408;-55
2021/05/11 04:03:54;;;;;;;7.47;5.10;;;12.90;92.60;;;;;;5062385;28;20087;-54
2021/05/11 04:06:20;;;;;;;7.70;5.47;;;12.90;92.70;;;;;;5064210;28;20041;-54
2021/05/11 04:08:52;;;;;;;8.02;5.63;;;12.90;92.70;;;;;;5062022;28;20393;-55
2021/05/11 04:11:54;;;;;;;;;;;12.90;92.90;;;;;;5055914;28;20083;-56
2021/05/11 04:17:06;;;;;;;7.82;5.50;;;13.00;92.70;;;;;;5053189;28;20101;-53
2021/05/11 04:19:34;;;;;;;7.68;5.25;;;12.90;92.80;;;;;;5035591;28;20044;-56
2021/05/11 04:22:00;;;;;;;9.32;6.25;;;12.90;93.00;;;;;;5069640;28;20048;-56
2021/05/11 04:24:29;;;;;;;7.45;4.97;;;12.90;93.20;;;;;;5052546;28;20098;-56
2021/05/11 04:26:56;;;;;;;8.00;4.57;;;12.80;93.00;;;;;;5070296;28;20036;-56
2021/05/11 04:29:22;;;;;;;6.93;5.10;;;12.90;93.20;;;;;;5065558;28;20440;-56
2021/05/11 04:31:47;;;;;;;5.43;3.58;;;12.90;92.90;;;;;;5060278;28;20626;-56
2021/05/11 04:34:13;;;;;;;6.53;3.58;;;12.90;92.40;;;;;;5067741;28;20045;-59
2021/05/11 04:36:39;;;;;;;6.80;3.33;;;12.90;92.20;;;;;;5069112;28;20116;-53
2021/05/11 04:39:05;;;;;;;6.35;3.42;;;12.90;92.10;;;;;;5073040;28;20040;-56
2021/05/11 04:41:36;;;;;;;6.60;4.15;;;12.80;92.20;;;;;;5054875;28;20051;-56
2021/05/11 04:44:04;;;;;;;6.55;4.97;;;12.80;92.40;;;;;;5073098;28;20037;-56
2021/05/11 04:46:57;;;;;;;10.00;4.50;;;12.80;92.40;;;;;;5018488;28;20051;-57
2021/05/11 04:49:24;;;;;;;5.38;3.67;;;12.80;92.50;;;;;;5060790;28;20073;-56
2021/05/11 04:51:50;;;;;;;5.45;3.80;;;12.80;92.70;;;;;;5073560;28;20067;-56
2021/05/11 04:54:16;;;;;;;9.25;3.75;;;12.80;92.60;;;;;;5073118;28;20102;-56
2021/05/11 04:56:45;;;;;;;6.07;3.92;;;12.80;92.70;;;;;;5072818;28;20131;-54
2021/05/11 04:59:11;;;;;;;7.75;3.88;;;12.80;92.60;;;;;;5065660;28;20047;-56
2021/05/11 05:01:36;;;;;;;7.53;3.70;;;12.80;92.60;;;;;;5070314;28;20036;-55
2021/05/11 05:04:04;;;;;;;5.35;3.42;;;12.80;92.70;;;;;;5070823;28;20056;-56
2021/05/11 05:06:31;;;;;;;5.07;3.80;;;12.80;92.70;;;;;;5053215;28;20492;-56
2021/05/11 05:09:05;;;;;;;6.55;3.42;;;12.80;92.70;;;;;;5073005;28;20098;-54
2021/05/11 05:11:30;;;;;;;4.57;3.22;;;12.80;92.80;;;;;;5071791;28;20040;-56
2021/05/11 05:13:57;;;;;;;5.25;3.47;;;12.80;92.80;;;;;;5073024;28;20090;-56
2021/05/11 05:16:22;;;;;;;5.57;3.60;;;12.80;92.60;;;;;;5072039;28;20052;-55
2021/05/11 05:18:48;;;;;;;6.93;3.60;;;12.70;92.70;;;;;;5070914;28;20374;-56
2021/05/11 05:21:14;;;;;;;6.63;4.00;;;12.70;92.70;;;;;;5072689;28;20051;-54
2021/05/11 05:23:48;;;;;;;5.07;3.80;;;12.70;92.70;;;;;;5072630;28;20079;-56
2021/05/11 05:26:18;;;;;;;6.32;3.97;;;12.70;92.80;;;;;;5069503;28;20059;-55
2021/05/11 05:28:44;;;;;;;5.47;4.00;;;12.70;92.80;;;;;;5071177;28;20113;-56
2021/05/11 05:31:10;;;;;;;8.05;4.32;;;12.70;92.80;;;;;;5072232;28;20472;-56
2021/05/11 05:33:37;;;;;;;6.70;5.03;;;12.70;93.10;;;;;;5071206;28;20041;-55
2021/05/11 05:36:06;;;;;;;6.65;4.40;;;12.70;93.00;;;;;;5069736;28;20045;-56
2021/05/11 05:38:33;;;;;;;7.10;4.30;;;12.70;93.00;;;;;;5053495;28;20218;-56
2021/05/11 05:41:02;;;;;;;7.10;4.38;;;12.70;93.00;;;;;;5063456;28;20489;-56
2021/05/11 05:43:29;;;;;;;6.20;4.50;;;12.70;93.20;;;;;;5070467;28;20036;-56
2021/05/11 05:45:55;;;;;;;8.18;5.05;;;12.80;93.20;;;;;;5071139;28;20523;-55
2021/05/11 05:48:20;;;;;;;8.07;4.45;;;12.80;92.90;;;;;;5070022;28;20036;-56
2021/05/11 05:50:52;;;;;;;6.10;4.90;;;12.80;93.20;;;;;;5070890;28;20056;-55
2021/05/11 05:53:29;;;;;;;7.95;4.88;;;12.80;93.20;;;;;;5067955;28;20045;-55
2021/05/11 05:55:55;;;;;;;7.43;4.78;;;12.80;93.40;;;;;;5064937;28;20102;-56
2021/05/11 05:58:22;;;;;;;5.93;5.00;;;12.80;93.30;;;;;;5063278;28;20047;-56
2021/05/11 06:00:52;;;;;;;8.23;4.88;;;12.80;93.30;;;;;;5062718;28;20044;-56
2021/05/11 06:03:39;;;;;;;6.07;4.80;;;12.80;93.40;;;;;;5057988;28;20398;-55
2021/05/11 06:06:07;;;;;;;7.13;5.13;;;12.80;93.50;;;;;;5060857;28;20044;-56
2021/05/11 06:08:36;;;;;;;8.45;5.38;;;12.80;93.60;;;;;;5053548;28;20045;-57
2021/05/11 06:11:26;;;;;;;6.60;4.47;;;12.90;93.60;;;;;;5053271;28;20080;-56
2021/05/11 06:19:05;;;;;;;6.53;5.18;;;12.90;93.50;;;;;;5063295;28;20045;-53
2021/05/11 06:21:31;;;;;;;7.88;5.07;;;13.00;93.60;;;;;;5059741;28;20045;-55
2021/05/11 06:23:57;;;;;;;6.68;5.57;;;12.90;93.40;;;;;;5063542;28;20041;-54
2021/05/11 06:26:23;;;;;;;7.90;5.18;;;12.90;93.40;;;;;;5049196;28;20124;-55
2021/05/11 06:28:49;;;;;;;6.53;4.95;;;13.00;93.50;;;;;;5033837;28;20131;-55
2021/05/11 06:31:17;;;;;;;8.32;5.30;;;13.00;93.60;;;;;;5061907;28;20504;-54
2021/05/11 06:33:44;;;;;;;9.52;6.05;;;13.00;93.70;;;;;;5051328;28;20359;-55
2021/05/11 06:36:10;;;;;;;8.27;5.95;;;13.10;93.50;;;;;;5057421;28;20063;-54
2021/05/11 06:38:39;;;;;;;6.03;5.38;;;13.10;93.40;;;;;;5059269;28;20513;-53
2021/05/11 06:41:06;;;;;;;6.35;5.60;;;13.00;93.40;;;;;;5054345;28;20045;-54
2021/05/11 06:43:33;;;;;;;9.05;5.53;;;13.10;93.40;;;;;;5032687;28;20106;-55
2021/05/11 06:53:53;;;;;;;7.97;5.40;;;13.20;93.40;;;;;;5055055;28;20136;-54
2021/05/11 06:56:21;;;;;;;7.88;5.28;;;13.20;93.70;;;;;;5055558;28;20439;-55
2021/05/11 06:58:47;;;;;;;10.13;5.85;;;13.30;93.30;;;;;;5058004;28;20411;-54
2021/05/11 07:01:20;;;;;;;9.32;5.93;;;13.30;93.40;;;;;;5055869;28;20036;-54
2021/05/11 07:03:46;;;;;;;7.57;4.95;;;13.30;93.40;;;;;;5052380;28;20052;-54
2021/05/11 07:06:13;;;;;;;6.88;4.72;;;13.40;93.30;;;;;;5058962;28;20080;-54
2021/05/11 07:08:46;;;;;;;4.43;3.92;;;13.50;93.20;;;;;;5048350;28;20055;-54
2021/05/11 07:13:46;;;;;;;5.45;2.85;;;13.60;92.60;;;;;;5054170;28;20037;-53
2021/05/11 07:16:12;;;;;;;5.47;3.50;;;13.70;92.40;;;;;;5059296;28;20497;-57
2021/05/11 07:18:38;;;;;;;5.82;3.72;;;13.80;91.80;;;;;;5061334;28;20040;-56
2021/05/11 07:21:04;;;;;;;3.72;3.03;;;13.80;91.90;;;;;;5060442;28;20102;-54
2021/05/11 07:23:31;;;;;;;5.72;3.55;;;13.90;91.50;;;;;;5051177;28;20067;-54
2021/05/11 07:28:37;;;;;;;4.28;3.55;;;13.80;91.90;;;;;;5071017;28;20051;-56
2021/05/11 07:31:06;;;;;;;6.55;4.50;;;13.90;91.70;;;;;;5064600;28;20127;-56
2021/05/11 07:33:40;;;;;;;6.57;4.65;;;13.90;92.10;;;;;;5070292;28;20040;-57
2021/05/11 07:36:06;;;;;;;8.55;5.90;;;13.80;92.30;;;;;;5052708;28;20484;-55
2021/05/11 07:38:32;;;;;;;8.00;5.78;;;13.90;92.40;;;;;;5058982;28;20069;-54
2021/05/11 07:40:58;;;;;;;8.50;6.45;;;13.90;92.20;;;;;;5064762;28;20073;-56
2021/05/11 07:43:25;;;;;;;8.57;6.00;;;13.90;92.70;;;;;;5062141;28;20033;-56
2021/05/11 08:15:31;;;;;;;6.45;4.18;;;14.40;92.20;;;;;;5070687;28;20831;-54
2021/05/11 08:23:25;;;;;;;7.15;4.22;;;14.60;90.80;;;;;;5053991;28;20560;-54
2021/05/11 08:28:42;;;;;;;8.10;4.40;;;14.70;91.00;;;;;;5069622;28;20132;-53
2021/05/11 08:31:08;;;;;;;8.27;5.05;;;14.70;90.80;;;;;;5060259;28;20115;-53
2021/05/11 08:33:34;;;;;;;7.90;4.90;;;14.80;90.60;;;;;;5073301;28;20443;-54
2021/05/11 08:36:00;;;;;;;5.43;4.10;;;14.80;90.90;;;;;;5059251;28;20044;-54
2021/05/11 08:38:26;;;;;;;6.05;4.43;;;14.80;90.70;;;;;;5072655;28;20464;-53
2021/05/11 08:40:52;;;;;;;8.30;4.78;;;14.80;90.90;;;;;;5073492;28;20595;-56
2021/05/11 08:43:34;;;;;;;6.60;4.45;;;14.80;91.00;;;;;;5063303;28;20431;-53
2021/05/11 08:46:03;;;;;;;6.20;4.43;;;15.00;90.30;;;;;;5073410;28;20040;-54
2021/05/11 08:48:30;;;;;;;7.50;4.40;;;15.10;90.00;;;;;;5072519;28;20045;-54
2021/05/11 09:07:34;;;;;;;;;;;15.10;88.80;;;;;;5068820;28;20047;-54
2021/05/11 09:14:15;;;;;;;6.47;4.25;;;15.20;89.00;;;;;;5072603;28;19916;-55
2021/05/11 09:29:24;;;;;;;4.90;3.47;;;15.60;86.60;;;;;;5069684;28;20041;-54
2021/05/11 09:32:01;;;;;;;7.55;3.75;;;15.60;87.20;;;;;;5062852;28;20119;-53
2021/05/11 09:34:46;;;;;;;4.80;3.15;;;15.60;87.40;;;;;;5065118;28;20037;-56
2021/05/11 09:57:32;;;;;;;5.50;2.80;;;16.00;83.50;;;;;;5069141;28;20385;-53
2021/05/11 10:00:11;;;;;;;4.63;2.28;;;16.10;82.10;;;;;;5056911;28;20117;-56
2021/05/11 10:48:29;;;;;;;3.13;1.88;;;16.40;78.30;;;;;;5056296;28;20507;-55
2021/05/11 10:50:58;;;;;;;3.38;1.80;;;16.50;77.70;;;;;;5051948;28;20039;-56
2021/05/11 10:53:51;;;;;;;3.20;1.75;;;16.40;78.40;;;;;;5055032;28;20044;-55
2021/05/11 10:56:36;;;;;;;7.95;1.88;;;16.50;74.70;;;;;;5056559;28;20822;-55
2021/05/11 11:01:44;;;;;;;6.53;1.80;;;16.60;77.00;;;;;;5061932;28;20109;-55
2021/05/11 11:04:19;;;;;;;4.78;2.15;;;16.70;75.60;;;;;;5065240;28;20627;-55
2021/05/11 11:06:57;;;;;;;3.08;1.50;;;16.70;76.30;;;;;;5058512;28;20041;-55
2021/05/11 11:09:35;;;;;;;3.20;1.60;;;16.70;75.30;;;;;;5066252;28;20036;-55
2021/05/11 11:12:04;;;;;;;2.70;1.50;;;16.80;74.40;;;;;;5066028;28;20059;-55
2021/05/11 11:14:41;;;;;;;2.10;1.30;;;16.90;75.30;;;;;;5056247;28;20044;-55
2021/05/11 11:17:11;;;;;;;4.57;1.75;;;16.90;74.40;;;;;;5068685;28;20052;-56
2021/05/11 11:19:37;;;;;;;2.63;1.40;;;16.90;75.50;;;;;;5067096;28;20032;-55
2021/05/11 11:24:56;;;;;;;3.50;1.40;;;17.00;73.20;;;;;;5067384;28;20164;-56
2021/05/11 11:27:29;;;;;;;2.80;1.48;;;17.00;74.80;;;;;;5068236;28;20071;-55
2021/05/11 11:30:08;;;;;;;5.50;1.38;;;17.00;74.00;;;;;;5054112;28;20459;-56
2021/05/11 11:32:36;;;;;;;2.13;1.50;;;17.10;72.40;;;;;;5065553;28;20732;-55
2021/05/11 11:35:04;;;;;;;1.75;1.30;;;17.00;72.40;;;;;;5062112;28;20489;-56
2021/05/11 11:37:31;;;;;;;3.80;1.70;;;17.00;72.60;;;;;;5041544;28;20117;-57
2021/05/11 11:40:01;;;;;;;3.50;1.83;;;17.00;73.70;;;;;;5035402;28;20461;-54
2021/05/11 11:42:33;;;;;;;3.00;1.80;;;16.90;74.10;;;;;;5069905;28;20507;-56
2021/05/11 11:45:00;;;;;;;2.50;1.70;;;16.90;74.60;;;;;;5072381;28;20071;-54
2021/05/11 11:47:27;;;;;;;3.58;1.70;;;16.90;74.50;;;;;;5073753;28;20488;-55
2021/05/11 11:50:02;;;;;;;3.08;1.70;;;16.90;75.30;;;;;;5067475;28;20045;-55
2021/05/11 11:55:25;;;;;;;2.83;1.60;;;17.00;75.80;;;;;;5055705;28;20462;-55
2021/05/11 11:57:55;;;;;;;3.38;1.40;;;17.00;74.00;;;;;;5054032;28;20094;-55
2021/05/11 12:00:32;;;;;;;3.28;1.70;;;17.10;74.70;;;;;;5072084;28;20068;-54
2021/05/11 12:03:13;;;;;;;3.17;1.60;;;17.00;75.10;;;;;;5072576;28;20090;-55
2021/05/11 12:05:51;;;;;;;4.88;1.85;;;17.10;73.60;;;;;;5069386;28;20045;-55
2021/05/11 12:10:46;;;;;;;2.92;2.05;;;17.00;74.30;;;;;;5067210;28;20029;-55
2021/05/11 12:13:13;;;;;;;4.28;1.98;;;16.80;76.10;;;;;;5068508;28;20419;-55
2021/05/11 12:15:42;;;;;;;4.85;1.80;;;16.80;76.50;;;;;;5044045;28;20396;-55
2021/05/11 12:18:15;;;;;;;5.15;1.80;;;16.90;76.40;;;;;;5065998;28;20037;-55
2021/05/11 12:20:41;;;;;;;3.08;1.75;;;16.90;77.20;;;;;;5067464;28;20400;-55
2021/05/11 12:23:15;;;;;;;5.88;1.60;;;17.00;75.80;;;;;;5066456;28;20044;-55
2021/05/11 12:25:55;;;;;;;3.03;1.75;;;17.10;72.70;;;;;;5069093;28;20110;-55
2021/05/11 12:28:36;;;;;;;3.40;2.00;;;17.10;74.40;;;;;;5059670;28;20135;-55
2021/05/11 12:31:04;;;;;;;3.95;2.00;;;17.10;74.70;;;;;;5058574;28;20284;-55
2021/05/11 12:33:33;;;;;;;1.92;1.65;;;17.20;74.40;;;;;;5074639;28;20044;-55
2021/05/11 12:36:03;;;;;;;3.92;2.03;;;17.10;75.00;;;;;;5073625;28;20047;-55
2021/05/11 12:38:31;;;;;;;4.60;1.77;;;17.00;75.60;;;;;;5064981;28;20053;-55
2021/05/11 12:43:37;;;;;;;2.50;1.70;;;17.10;74.20;;;;;;5062208;28;20086;-55
2021/05/11 12:46:25;;;;;;;3.65;2.20;;;17.00;75.10;;;;;;5063196;28;20044;-55
2021/05/11 12:48:50;;;;;;;4.78;2.03;;;17.10;75.80;;;;;;5058843;28;20051;-56
2021/05/11 12:51:28;;;;;;;3.38;2.00;;;17.00;76.50;;;;;;5070868;28;20040;-55
2021/05/11 12:53:58;;;;;;;3.70;2.22;;;17.00;76.70;;;;;;5072892;28;20040;-56
2021/05/11 12:57:23;;;;;;;1.90;1.75;;;17.10;75.70;;;;;;5072573;28;20155;-56
2021/05/11 13:14:55;;;;;;;4.35;2.50;;;17.00;76.50;;;;;;5073647;28;20044;-56
2021/05/11 13:16:54;;;;;;;4.40;2.90;;;16.80;78.40;;;;;;5063274;28;20071;-55
2021/05/11 13:20:02;;;;;;;4.20;3.08;;;16.80;79.10;;;;;;5069578;28;20104;-54
2021/05/11 13:25:24;;;;;;;5.43;3.40;;;16.70;79.30;;;;;;5034470;28;20479;-55
2021/05/11 13:28:01;;;;;;;4.82;3.47;;;16.50;79.70;;;;;;5034365;28;20050;-55
2021/05/11 13:30:42;;;;;;;4.85;3.75;;;16.70;78.40;;;;;;5048407;28;20041;-56
2021/05/11 13:35:35;;;;;;;6.80;3.13;;;16.60;79.20;;;;;;5071768;28;20044;-55
2021/05/11 13:38:01;;;;;;;4.38;3.80;;;16.50;79.50;;;;;;5071205;28;20038;-54
2021/05/11 13:40:28;;;;;;;4.05;3.20;;;16.60;79.00;;;;;;5068924;28;20113;-54
2021/05/11 13:42:54;;;;;;;4.38;3.30;;;16.60;78.70;;;;;;5068036;28;20559;-52
2021/05/11 13:45:21;;;;;;;4.85;3.90;;;16.60;79.30;;;;;;5071379;28;20048;-53
2021/05/11 13:53:30;;;;;;;6.50;3.95;;;16.50;80.40;;;;;;5064860;28;20367;-53
2021/05/11 14:04:03;;;;;;;2.38;2.10;;;16.40;80.10;;;;;;5068134;28;20047;-51
2021/05/11 14:06:29;;;;;;;4.13;2.60;;;16.20;79.90;;;;;;5072269;28;20127;-53
2021/05/11 14:08:55;;;;;;;6.22;2.65;;;16.30;79.90;;;;;;5070387;28;20523;-50
2021/05/11 14:11:22;;;;;;;7.47;2.55;;;16.10;80.50;;;;;;5064874;28;20048;-53
2021/05/11 14:13:48;;;;;;;4.57;2.65;;;16.10;81.10;;;;;;5043112;28;20488;-50
2021/05/11 14:16:14;;;;;;;3.55;2.88;;;16.00;81.50;;;;;;5061056;28;20086;-50
2021/05/11 14:18:40;;;;;;;4.20;3.00;;;16.00;81.40;;;;;;5062190;28;20049;-53
2021/05/11 14:21:06;;;;;;;7.40;3.08;;;16.20;80.70;;;;;;5062161;28;20080;-53
2021/05/11 14:23:32;;;;;;;4.35;3.28;;;16.00;81.80;;;;;;5066709;28;20110;-53
2021/05/11 14:25:58;;;;;;;4.22;2.92;;;16.00;82.00;;;;;;5054108;28;20049;-51
2021/05/11 14:28:24;;;;;;;4.97;3.30;;;16.00;82.40;;;;;;5065912;28;20094;-50
2021/05/11 14:30:50;;;;;;;4.57;3.25;;;16.00;82.30;;;;;;5070456;28;20512;-50
2021/05/11 14:33:15;;;;;;;4.05;3.17;;;15.90;83.30;;;;;;5071178;28;20492;-53
2021/05/11 14:35:41;;;;;;;3.35;2.28;;;15.90;84.20;;;;;;5071628;28;20040;-55
2021/05/11 14:38:07;;;;;;;3.50;1.90;;;15.90;84.90;;;;;;5071847;28;20067;-52
2021/05/11 14:40:33;;;;;;;1.88;1.23;;;16.00;83.50;;;;;;5062821;28;20040;-51
2021/05/11 14:42:58;;;;;;;1.52;1.15;;;15.90;83.70;;;;;;5070690;28;20209;-53
2021/05/11 14:45:30;;;;;;;1.33;1.23;;;15.90;82.70;;;;;;5070974;28;20110;-50
2021/05/11 14:47:55;;;;;;;1.55;1.35;;;15.70;84.00;;;;;;5071206;28;20071;-52
2021/05/11 14:50:23;;;;;;;1.85;1.50;;;15.60;85.20;;;;;;5070496;28;20060;-53
2021/05/11 14:52:53;;;;;;;3.08;1.60;;;15.50;85.00;;;;;;5065119;28;20042;-53
2021/05/11 14:55:23;;;;;;;3.28;1.50;;;15.30;86.30;;;;;;5072334;28;20416;-53
2021/05/11 14:57:49;;;;;;;1.90;1.70;;;15.40;85.80;;;;;;5060418;28;20102;-50
2021/05/11 15:00:15;;;;;;;2.47;1.90;;;15.40;85.50;;;;;;5060650;28;20044;-53
2021/05/11 15:02:41;;;;;;;2.90;2.00;;;15.30;86.20;;;;;;5064883;28;20127;-53
2021/05/11 15:05:07;;;;;;;3.75;1.77;;;15.30;85.80;;;;;;5067623;28;20142;-55
2021/05/11 15:07:33;;;;;;;3.42;2.00;;;15.20;86.60;;;;;;5069934;28;20048;-50
2021/05/11 15:09:58;;;;;;;2.97;1.90;;;15.20;86.70;;;;;;5065378;28;20110;-52
2021/05/11 15:12:25;;;;;;;2.55;1.83;;;15.10;87.50;;;;;;5058142;28;20102;-52
2021/05/11 15:14:51;;;;;;;3.13;2.00;;;15.10;88.00;;;;;;5047752;28;20029;-53
2021/05/11 15:19:52;;;;;;;2.67;1.70;;;15.00;87.00;;;;;;5059951;28;20104;-55
2021/05/11 15:22:20;;;;;;;2.00;1.83;;;15.10;87.10;;;;;;5061861;28;20044;-56
2021/05/11 15:24:47;;;;;;;3.15;2.10;;;15.00;86.90;;;;;;5065862;28;20046;-54
2021/05/11 15:27:12;;;;;;;4.43;2.17;;;15.10;87.80;;;;;;5070367;28;20037;-55
2021/05/11 15:29:38;;;;;;;4.85;2.15;;;15.00;87.40;;;;;;5068922;28;20048;-56
2021/05/11 15:32:40;;;;;;;2.33;1.90;;;15.00;88.60;;;;;;5071151;28;20036;-56
2021/05/11 15:35:14;;;;;;;3.40;2.50;;;15.00;89.10;;;;;;5070753;28;20381;-56
2021/05/11 15:37:41;;;;;;;4.82;2.45;;;14.90;89.30;;;;;;5065177;28;20055;-53
2021/05/11 15:40:10;;;;;;;3.47;2.47;;;15.00;89.10;;;;;;5056431;28;20048;-50
2021/05/11 15:42:36;;;;;;;5.35;2.80;;;15.00;89.80;;;;;;5060829;28;20130;-52
2021/05/11 15:45:03;;;;;;;3.88;2.30;;;14.90;89.80;;;;;;5064484;28;20632;-50
2021/05/11 15:47:30;;;;;;;3.15;2.17;;;15.00;89.60;;;;;;5057689;28;20060;-52
2021/05/11 15:49:56;;;;;;;2.72;2.30;;;14.90;90.00;;;;;;5058803;28;20041;-51
2021/05/11 15:52:22;;;;;;;3.92;2.70;;;14.90;90.10;;;;;;5058104;28;20045;-51
2021/05/11 15:54:49;;;;;;;3.65;2.70;;;14.90;89.70;;;;;;5062640;28;20567;-51
2021/05/11 15:57:15;;;;;;;4.63;2.60;;;14.80;90.20;;;;;;5059477;28;20045;-52
2021/05/11 15:59:41;;;;;;;3.47;2.63;;;14.80;90.70;;;;;;5047811;28;20409;-53
2021/05/11 16:02:07;;;;;;;3.33;2.80;;;15.00;90.40;;;;;;5052426;28;20172;-53
2021/05/11 16:04:32;;;;;;;4.22;2.75;;;14.90;90.30;;;;;;5068223;28;20037;-53
2021/05/11 16:06:58;;;;;;;3.25;2.83;;;14.90;90.60;;;;;;5069732;28;20761;-53
2021/05/11 16:09:24;;;;;;;5.47;3.15;;;14.80;91.00;;;;;;5069775;28;20037;-50
2021/05/11 16:11:50;;;;;;;6.47;3.40;;;14.70;91.30;;;;;;5068508;28;20045;-52
2021/05/11 16:14:16;;;;;;;7.47;6.45;;;14.60;91.50;;;;;;5055249;28;20064;-52
2021/05/11 16:16:42;;;;;;;3.75;3.35;;;14.60;91.70;;;;;;5069430;28;20041;-52
2021/05/11 16:19:08;;;;;;;5.32;3.65;;;14.60;91.60;;;;;;5065019;28;20047;-54
2021/05/11 16:21:34;;;;;;;5.22;3.33;;;14.60;91.60;;;;;;5069238;28;20044;-53
2021/05/11 16:23:59;;;;;;;5.80;3.60;;;14.50;91.90;;;;;;5069341;28;20044;-54
2021/05/11 16:26:26;;;;;;;6.00;4.00;;;14.50;92.30;;;;;;5061346;28;20062;-51
2021/05/11 16:28:53;;;;;;;6.00;3.95;;;14.60;92.00;;;;;;5070202;28;20036;-54
2021/05/11 16:31:20;;;;;;;5.20;3.65;;;14.60;92.20;;;;;;5054854;28;20068;-52
2021/05/11 16:33:46;;;;;;;5.38;3.80;;;14.60;91.70;;;;;;5038057;28;20110;-52
2021/05/11 16:36:12;;;;;;;5.15;3.47;;;14.50;91.70;;;;;;5063507;28;20037;-54
2021/05/11 16:38:38;;;;;;;7.38;3.60;;;14.50;91.70;;;;;;5058862;28;20037;-51
2021/05/11 16:41:04;;;;;;;6.15;3.88;;;14.40;91.70;;;;;;5064409;28;20049;-54
2021/05/11 16:43:31;;;;;;;6.50;3.83;;;14.30;92.10;;;;;;5067739;28;20119;-55
2021/05/11 16:46:01;;;;;;;5.38;3.97;;;14.40;91.60;;;;;;5071004;28;20033;-54
2021/05/11 16:48:29;;;;;;;5.88;3.80;;;14.30;91.80;;;;;;5057304;28;20428;-55
2021/05/11 16:50:54;;;;;;;5.30;3.58;;;14.30;92.00;;;;;;5072525;28;20131;-51
2021/05/11 16:53:20;;;;;;;5.60;3.42;;;14.20;92.10;;;;;;5066088;28;20037;-52
2021/05/11 16:55:46;;;;;;;9.18;3.75;;;14.30;91.80;;;;;;5037462;28;20040;-55
2021/05/11 16:58:12;;;;;;;4.40;3.45;;;14.20;91.80;;;;;;5063107;28;20124;-54
2021/05/11 17:00:38;;;;;;;4.85;3.38;;;14.20;92.20;;;;;;5053810;28;20086;-55
2021/05/11 17:03:05;;;;;;;5.93;3.80;;;14.20;92.00;;;;;;5055126;28;20045;-54
2021/05/11 17:05:33;;;;;;;5.68;4.18;;;14.20;92.10;;;;;;5055846;28;20036;-55
2021/05/11 17:07:59;;;;;;;5.03;3.55;;;14.20;92.40;;;;;;5057909;28;20041;-53
2021/05/11 17:10:28;;;;;;;8.40;4.80;;;14.20;92.10;;;;;;5055236;28;20568;-54
2021/05/11 17:12:55;;;;;;;6.93;3.67;;;14.20;92.20;;;;;;5048206;28;20040;-55
2021/05/11 17:15:21;;;;;;;5.90;3.83;;;14.20;92.20;;;;;;5057731;28;20049;-54